sensor_id;sensor_type;location;lat;lon;timestamp;P1;durP1;ratioP1;P2;durP2;ratioP2
2850;SDS011;1433;49.976;8.342;2023-03-01T00:01:17;14.20;;;12.70;;
2850;SDS011;1433;49.976;8.342;2023-03-01T00:03:45;21.37;;;12.70;;
2850;SDS011;1433;49.976;8.342;2023-03-01T00:06:12;17.30;;;14.30;;
2850;SDS011;1433;49.976;8.342;2023-03-01T00:08:39;14.07;;;12.63;;
2850;SDS011;1433;49.976;8.342;2023-03-01T00:11:13;16.60;;;13.60;;
2850;SDS011;1433;49.976;8.342;2023-03-01T00:13:50;16.70;;;13.00;;
2850;SDS011;1433;49.976;8.342;2023-03-01T00:16:23;14.53;;;13.13;;
2850;SDS011;1433;49.976;8.342;2023-03-01T00:18:50;14.67;;;13.27;;
2850;SDS011;1433;49.976;8.342;2023-03-01T00:21:17;16.03;;;14.37;;
2850;SDS011;1433;49.976;8.342;2023-03-01T00:23:45;15.47;;;12.70;;
2850;SDS011;1433;49.976;8.342;2023-03-01T00:26:14;17.50;;;15.40;;
2850;SDS011;1433;49.976;8.342;2023-03-01T00:28:42;16.00;;;13.80;;
2850;SDS011;1433;49.976;8.342;2023-03-01T00:31:09;13.57;;;12.17;;
2850;SDS011;1433;49.976;8.342;2023-03-01T00:33:43;14.90;;;13.20;;
2850;SDS011;1433;49.976;8.342;2023-03-01T00:36:10;17.50;;;12.53;;
2850;SDS011;1433;49.976;8.342;2023-03-01T00:38:41;16.20;;;12.30;;
2850;SDS011;1433;49.976;8.342;2023-03-01T00:41:11;15.00;;;12.73;;
2850;SDS011;1433;49.976;8.342;2023-03-01T00:43:41;19.40;;;12.90;;
2850;SDS011;1433;49.976;8.342;2023-03-01T00:46:08;18.00;;;13.97;;
2850;SDS011;1433;49.976;8.342;2023-03-01T00:48:38;16.17;;;14.53;;
2850;SDS011;1433;49.976;8.342;2023-03-01T00:51:10;15.50;;;12.20;;
2850;SDS011;1433;49.976;8.342;2023-03-01T00:53:39;16.90;;;14.50;;
2850;SDS011;1433;49.976;8.342;2023-03-01T00:56:07;15.70;;;13.70;;
2850;SDS011;1433;49.976;8.342;2023-03-01T00:58:36;17.67;;;14.00;;
2850;SDS011;1433;49.976;8.342;2023-03-01T01:01:14;17.43;;;14.17;;
2850;SDS011;1433;49.976;8.342;2023-03-01T01:03:50;14.50;;;12.93;;
2850;SDS011;1433;49.976;8.342;2023-03-01T01:06:21;15.80;;;13.30;;
2850;SDS011;1433;49.976;8.342;2023-03-01T01:08:51;16.60;;;14.67;;
2850;SDS011;1433;49.976;8.342;2023-03-01T01:11:19;15.53;;;13.90;;
2850;SDS011;1433;49.976;8.342;2023-03-01T01:13:47;18.00;;;13.77;;
2850;SDS011;1433;49.976;8.342;2023-03-01T01:16:15;15.67;;;13.07;;
2850;SDS011;1433;49.976;8.342;2023-03-01T01:18:44;13.73;;;12.47;;
2850;SDS011;1433;49.976;8.342;2023-03-01T01:21:12;15.97;;;13.63;;
2850;SDS011;1433;49.976;8.342;2023-03-01T01:23:41;17.33;;;14.43;;
2850;SDS011;1433;49.976;8.342;2023-03-01T01:26:11;15.00;;;13.50;;
2850;SDS011;1433;49.976;8.342;2023-03-01T01:28:40;18.80;;;13.53;;
2850;SDS011;1433;49.976;8.342;2023-03-01T01:31:07;19.00;;;14.63;;
2850;SDS011;1433;49.976;8.342;2023-03-01T01:33:34;16.43;;;14.47;;
2850;SDS011;1433;49.976;8.342;2023-03-01T01:36:03;15.87;;;14.37;;
2850;SDS011;1433;49.976;8.342;2023-03-01T01:38:31;17.30;;;15.40;;
2850;SDS011;1433;49.976;8.342;2023-03-01T01:40:58;16.83;;;14.10;;
2850;SDS011;1433;49.976;8.342;2023-03-01T01:43:25;19.20;;;15.10;;
2850;SDS011;1433;49.976;8.342;2023-03-01T01:46:06;17.00;;;14.67;;
2850;SDS011;1433;49.976;8.342;2023-03-01T01:49:02;18.37;;;15.50;;
2850;SDS011;1433;49.976;8.342;2023-03-01T01:51:33;22.03;;;15.17;;
2850;SDS011;1433;49.976;8.342;2023-03-01T01:54:08;17.40;;;15.50;;
2850;SDS011;1433;49.976;8.342;2023-03-01T01:56:44;18.87;;;15.53;;
2850;SDS011;1433;49.976;8.342;2023-03-01T01:59:15;17.97;;;14.60;;
2850;SDS011;1433;49.976;8.342;2023-03-01T02:01:42;17.00;;;14.40;;
2850;SDS011;1433;49.976;8.342;2023-03-01T02:04:09;15.50;;;13.23;;
2850;SDS011;1433;49.976;8.342;2023-03-01T02:06:44;16.07;;;14.20;;
2850;SDS011;1433;49.976;8.342;2023-03-01T02:09:11;16.03;;;13.30;;
2850;SDS011;1433;49.976;8.342;2023-03-01T02:11:40;16.37;;;14.33;;
2850;SDS011;1433;49.976;8.342;2023-03-01T02:14:07;16.77;;;15.00;;
2850;SDS011;1433;49.976;8.342;2023-03-01T02:16:34;17.93;;;13.83;;
2850;SDS011;1433;49.976;8.342;2023-03-01T02:19:00;15.00;;;13.40;;
2850;SDS011;1433;49.976;8.342;2023-03-01T02:27:20;22.13;;;16.37;;
2850;SDS011;1433;49.976;8.342;2023-03-01T02:29:52;16.37;;;14.23;;
2850;SDS011;1433;49.976;8.342;2023-03-01T02:32:18;19.80;;;15.33;;
2850;SDS011;1433;49.976;8.342;2023-03-01T02:34:48;14.33;;;12.93;;
2850;SDS011;1433;49.976;8.342;2023-03-01T02:37:14;17.40;;;15.47;;
2850;SDS011;1433;49.976;8.342;2023-03-01T02:39:45;18.67;;;15.83;;
2850;SDS011;1433;49.976;8.342;2023-03-01T02:42:15;18.33;;;15.23;;
2850;SDS011;1433;49.976;8.342;2023-03-01T02:44:49;17.77;;;13.70;;
2850;SDS011;1433;49.976;8.342;2023-03-01T02:47:15;19.80;;;16.30;;
2850;SDS011;1433;49.976;8.342;2023-03-01T02:49:42;16.90;;;15.20;;
2850;SDS011;1433;49.976;8.342;2023-03-01T02:55:18;15.80;;;13.47;;
2850;SDS011;1433;49.976;8.342;2023-03-01T02:57:45;16.43;;;14.43;;
2850;SDS011;1433;49.976;8.342;2023-03-01T03:00:16;16.80;;;15.03;;
2850;SDS011;1433;49.976;8.342;2023-03-01T03:02:58;16.83;;;14.90;;
2850;SDS011;1433;49.976;8.342;2023-03-01T03:05:26;15.37;;;13.70;;
2850;SDS011;1433;49.976;8.342;2023-03-01T03:07:57;23.03;;;15.83;;
2850;SDS011;1433;49.976;8.342;2023-03-01T03:10:27;16.60;;;14.57;;
2850;SDS011;1433;49.976;8.342;2023-03-01T03:13:03;15.80;;;14.10;;
2850;SDS011;1433;49.976;8.342;2023-03-01T03:15:33;15.23;;;13.60;;
2850;SDS011;1433;49.976;8.342;2023-03-01T03:18:05;16.40;;;13.60;;
2850;SDS011;1433;49.976;8.342;2023-03-01T03:20:40;15.30;;;13.50;;
2850;SDS011;1433;49.976;8.342;2023-03-01T03:23:08;19.10;;;14.20;;
2850;SDS011;1433;49.976;8.342;2023-03-01T03:25:36;15.60;;;13.90;;
2850;SDS011;1433;49.976;8.342;2023-03-01T03:28:03;17.37;;;13.67;;
2850;SDS011;1433;49.976;8.342;2023-03-01T03:30:33;17.70;;;14.57;;
2850;SDS011;1433;49.976;8.342;2023-03-01T03:32:59;18.40;;;14.50;;
2850;SDS011;1433;49.976;8.342;2023-03-01T03:35:27;17.33;;;14.47;;
2850;SDS011;1433;49.976;8.342;2023-03-01T03:37:56;18.23;;;15.87;;
2850;SDS011;1433;49.976;8.342;2023-03-01T03:40:34;19.50;;;14.30;;
2850;SDS011;1433;49.976;8.342;2023-03-01T03:43:13;16.60;;;14.27;;
2850;SDS011;1433;49.976;8.342;2023-03-01T03:45:43;21.17;;;16.63;;
2850;SDS011;1433;49.976;8.342;2023-03-01T03:48:11;16.47;;;14.47;;
2850;SDS011;1433;49.976;8.342;2023-03-01T03:50:38;20.17;;;16.40;;
2850;SDS011;1433;49.976;8.342;2023-03-01T03:53:07;17.93;;;15.57;;
2850;SDS011;1433;49.976;8.342;2023-03-01T03:55:38;20.50;;;15.60;;
2850;SDS011;1433;49.976;8.342;2023-03-01T03:58:06;20.03;;;16.90;;
2850;SDS011;1433;49.976;8.342;2023-03-01T04:00:36;20.57;;;14.83;;
2850;SDS011;1433;49.976;8.342;2023-03-01T04:03:05;19.37;;;15.20;;
2850;SDS011;1433;49.976;8.342;2023-03-01T04:05:32;17.90;;;14.47;;
2850;SDS011;1433;49.976;8.342;2023-03-01T04:07:59;19.40;;;15.37;;
2850;SDS011;1433;49.976;8.342;2023-03-01T04:10:33;20.40;;;16.50;;
2850;SDS011;1433;49.976;8.342;2023-03-01T04:12:59;18.40;;;14.97;;
2850;SDS011;1433;49.976;8.342;2023-03-01T04:15:25;20.60;;;15.87;;
2850;SDS011;1433;49.976;8.342;2023-03-01T04:17:53;17.20;;;15.43;;
2850;SDS011;1433;49.976;8.342;2023-03-01T04:20:21;20.13;;;16.03;;
2850;SDS011;1433;49.976;8.342;2023-03-01T04:22:51;16.37;;;14.77;;
2850;SDS011;1433;49.976;8.342;2023-03-01T04:25:24;20.30;;;15.40;;
2850;SDS011;1433;49.976;8.342;2023-03-01T04:27:52;19.83;;;16.37;;
2850;SDS011;1433;49.976;8.342;2023-03-01T04:30:18;20.73;;;16.67;;
2850;SDS011;1433;49.976;8.342;2023-03-01T04:32:47;20.03;;;15.37;;
2850;SDS011;1433;49.976;8.342;2023-03-01T04:35:14;18.20;;;16.00;;
2850;SDS011;1433;49.976;8.342;2023-03-01T04:37:40;19.83;;;16.50;;
2850;SDS011;1433;49.976;8.342;2023-03-01T04:40:07;20.70;;;16.30;;
2850;SDS011;1433;49.976;8.342;2023-03-01T04:42:37;19.60;;;15.70;;
2850;SDS011;1433;49.976;8.342;2023-03-01T04:45:04;23.83;;;16.17;;
2850;SDS011;1433;49.976;8.342;2023-03-01T04:47:33;18.30;;;15.07;;
2850;SDS011;1433;49.976;8.342;2023-03-01T04:49:59;19.07;;;16.10;;
2850;SDS011;1433;49.976;8.342;2023-03-01T04:52:25;19.70;;;15.77;;
2850;SDS011;1433;49.976;8.342;2023-03-01T04:54:52;19.43;;;16.03;;
2850;SDS011;1433;49.976;8.342;2023-03-01T04:57:18;19.87;;;15.90;;
2850;SDS011;1433;49.976;8.342;2023-03-01T04:59:44;23.87;;;17.43;;
2850;SDS011;1433;49.976;8.342;2023-03-01T05:02:10;18.30;;;16.40;;
2850;SDS011;1433;49.976;8.342;2023-03-01T05:04:36;18.03;;;15.30;;
2850;SDS011;1433;49.976;8.342;2023-03-01T05:07:03;18.23;;;16.00;;
2850;SDS011;1433;49.976;8.342;2023-03-01T05:09:29;20.00;;;16.60;;
2850;SDS011;1433;49.976;8.342;2023-03-01T05:11:55;18.00;;;15.33;;
2850;SDS011;1433;49.976;8.342;2023-03-01T05:14:21;21.23;;;17.70;;
2850;SDS011;1433;49.976;8.342;2023-03-01T05:16:48;20.67;;;17.80;;
2850;SDS011;1433;49.976;8.342;2023-03-01T05:19:14;25.13;;;21.43;;
2850;SDS011;1433;49.976;8.342;2023-03-01T05:21:41;23.20;;;20.73;;
2850;SDS011;1433;49.976;8.342;2023-03-01T05:24:13;21.57;;;19.33;;
2850;SDS011;1433;49.976;8.342;2023-03-01T05:26:40;19.60;;;17.40;;
2850;SDS011;1433;49.976;8.342;2023-03-01T05:29:07;22.20;;;17.70;;
2850;SDS011;1433;49.976;8.342;2023-03-01T05:31:35;21.27;;;15.90;;
2850;SDS011;1433;49.976;8.342;2023-03-01T05:34:01;20.03;;;16.83;;
2850;SDS011;1433;49.976;8.342;2023-03-01T05:36:29;21.70;;;17.73;;
2850;SDS011;1433;49.976;8.342;2023-03-01T05:38:55;22.67;;;19.30;;
2850;SDS011;1433;49.976;8.342;2023-03-01T05:41:22;17.10;;;15.30;;
2850;SDS011;1433;49.976;8.342;2023-03-01T05:43:49;19.63;;;16.80;;
2850;SDS011;1433;49.976;8.342;2023-03-01T05:46:15;20.83;;;17.80;;
2850;SDS011;1433;49.976;8.342;2023-03-01T05:48:41;20.07;;;16.90;;
2850;SDS011;1433;49.976;8.342;2023-03-01T05:51:08;21.83;;;18.90;;
2850;SDS011;1433;49.976;8.342;2023-03-01T05:53:34;21.97;;;18.00;;
2850;SDS011;1433;49.976;8.342;2023-03-01T05:56:02;19.63;;;17.03;;
2850;SDS011;1433;49.976;8.342;2023-03-01T05:58:30;24.40;;;20.80;;
2850;SDS011;1433;49.976;8.342;2023-03-01T06:01:00;19.33;;;17.33;;
2850;SDS011;1433;49.976;8.342;2023-03-01T06:03:29;21.33;;;17.93;;
2850;SDS011;1433;49.976;8.342;2023-03-01T06:05:56;19.20;;;17.23;;
2850;SDS011;1433;49.976;8.342;2023-03-01T06:08:29;26.30;;;18.40;;
2850;SDS011;1433;49.976;8.342;2023-03-01T06:10:57;21.17;;;18.87;;
2850;SDS011;1433;49.976;8.342;2023-03-01T06:13:27;22.80;;;19.40;;
2850;SDS011;1433;49.976;8.342;2023-03-01T06:15:54;24.00;;;18.93;;
2850;SDS011;1433;49.976;8.342;2023-03-01T06:18:20;22.83;;;18.47;;
2850;SDS011;1433;49.976;8.342;2023-03-01T06:20:52;20.33;;;17.03;;
2850;SDS011;1433;49.976;8.342;2023-03-01T06:23:22;18.67;;;16.67;;
2850;SDS011;1433;49.976;8.342;2023-03-01T06:25:49;19.43;;;16.60;;
2850;SDS011;1433;49.976;8.342;2023-03-01T06:28:15;23.27;;;17.90;;
2850;SDS011;1433;49.976;8.342;2023-03-01T06:30:42;20.53;;;16.30;;
2850;SDS011;1433;49.976;8.342;2023-03-01T06:33:08;20.10;;;16.73;;
2850;SDS011;1433;49.976;8.342;2023-03-01T06:35:35;19.90;;;17.10;;
2850;SDS011;1433;49.976;8.342;2023-03-01T06:38:02;21.43;;;18.27;;
2850;SDS011;1433;49.976;8.342;2023-03-01T06:40:30;18.47;;;16.43;;
2850;SDS011;1433;49.976;8.342;2023-03-01T06:42:57;19.40;;;16.27;;
2850;SDS011;1433;49.976;8.342;2023-03-01T06:45:24;23.80;;;17.33;;
2850;SDS011;1433;49.976;8.342;2023-03-01T06:47:50;17.20;;;14.93;;
2850;SDS011;1433;49.976;8.342;2023-03-01T06:50:17;25.47;;;17.40;;
2850;SDS011;1433;49.976;8.342;2023-03-01T06:52:44;18.83;;;16.93;;
2850;SDS011;1433;49.976;8.342;2023-03-01T06:55:12;19.90;;;17.90;;
2850;SDS011;1433;49.976;8.342;2023-03-01T06:57:39;20.20;;;16.93;;
2850;SDS011;1433;49.976;8.342;2023-03-01T07:00:05;17.90;;;15.67;;
2850;SDS011;1433;49.976;8.342;2023-03-01T07:02:33;24.30;;;17.23;;
2850;SDS011;1433;49.976;8.342;2023-03-01T07:05:00;23.17;;;17.27;;
2850;SDS011;1433;49.976;8.342;2023-03-01T07:07:27;19.00;;;17.00;;
2850;SDS011;1433;49.976;8.342;2023-03-01T07:09:53;19.97;;;17.87;;
2850;SDS011;1433;49.976;8.342;2023-03-01T07:12:20;18.53;;;16.30;;
2850;SDS011;1433;49.976;8.342;2023-03-01T07:14:46;23.40;;;15.90;;
2850;SDS011;1433;49.976;8.342;2023-03-01T07:17:12;18.83;;;16.83;;
2850;SDS011;1433;49.976;8.342;2023-03-01T07:19:38;18.57;;;16.67;;
2850;SDS011;1433;49.976;8.342;2023-03-01T07:22:05;18.50;;;16.43;;
2850;SDS011;1433;49.976;8.342;2023-03-01T07:24:33;20.97;;;17.77;;
2850;SDS011;1433;49.976;8.342;2023-03-01T07:26:59;22.70;;;18.67;;
2850;SDS011;1433;49.976;8.342;2023-03-01T07:29:26;19.70;;;17.60;;
2850;SDS011;1433;49.976;8.342;2023-03-01T07:31:52;20.93;;;17.23;;
2850;SDS011;1433;49.976;8.342;2023-03-01T07:34:19;20.67;;;17.80;;
2850;SDS011;1433;49.976;8.342;2023-03-01T07:36:45;20.80;;;17.67;;
2850;SDS011;1433;49.976;8.342;2023-03-01T07:39:11;20.10;;;17.47;;
2850;SDS011;1433;49.976;8.342;2023-03-01T07:41:38;23.57;;;19.00;;
2850;SDS011;1433;49.976;8.342;2023-03-01T07:44:06;24.40;;;19.10;;
2850;SDS011;1433;49.976;8.342;2023-03-01T07:46:34;22.17;;;19.83;;
2850;SDS011;1433;49.976;8.342;2023-03-01T07:49:01;22.63;;;19.10;;
2850;SDS011;1433;49.976;8.342;2023-03-01T07:51:27;18.80;;;16.70;;
2850;SDS011;1433;49.976;8.342;2023-03-01T07:53:53;22.30;;;18.20;;
2850;SDS011;1433;49.976;8.342;2023-03-01T07:56:20;23.20;;;19.87;;
2850;SDS011;1433;49.976;8.342;2023-03-01T07:58:47;25.03;;;18.80;;
2850;SDS011;1433;49.976;8.342;2023-03-01T08:01:15;19.30;;;16.97;;
2850;SDS011;1433;49.976;8.342;2023-03-01T08:03:44;21.07;;;16.30;;
2850;SDS011;1433;49.976;8.342;2023-03-01T08:06:11;23.17;;;18.97;;
2850;SDS011;1433;49.976;8.342;2023-03-01T08:08:42;26.33;;;20.53;;
2850;SDS011;1433;49.976;8.342;2023-03-01T08:11:14;32.33;;;21.40;;
2850;SDS011;1433;49.976;8.342;2023-03-01T08:13:38;21.50;;;18.33;;
2850;SDS011;1433;49.976;8.342;2023-03-01T08:16:06;20.17;;;16.70;;
2850;SDS011;1433;49.976;8.342;2023-03-01T08:18:35;21.20;;;16.87;;
2850;SDS011;1433;49.976;8.342;2023-03-01T08:21:03;19.30;;;17.23;;
2850;SDS011;1433;49.976;8.342;2023-03-01T08:23:32;20.90;;;18.30;;
2850;SDS011;1433;49.976;8.342;2023-03-01T08:26:12;21.40;;;19.10;;
2850;SDS011;1433;49.976;8.342;2023-03-01T08:28:41;19.57;;;17.37;;
2850;SDS011;1433;49.976;8.342;2023-03-01T08:31:24;25.57;;;17.40;;
2850;SDS011;1433;49.976;8.342;2023-03-01T08:33:55;17.43;;;14.53;;
2850;SDS011;1433;49.976;8.342;2023-03-01T08:36:24;25.00;;;17.80;;
2850;SDS011;1433;49.976;8.342;2023-03-01T08:38:56;20.70;;;18.57;;
2850;SDS011;1433;49.976;8.342;2023-03-01T08:41:24;20.43;;;17.17;;
2850;SDS011;1433;49.976;8.342;2023-03-01T08:43:51;20.13;;;16.50;;
2850;SDS011;1433;49.976;8.342;2023-03-01T08:46:21;18.40;;;16.33;;
2850;SDS011;1433;49.976;8.342;2023-03-01T08:48:47;19.23;;;17.27;;
2850;SDS011;1433;49.976;8.342;2023-03-01T08:51:15;25.03;;;16.13;;
2850;SDS011;1433;49.976;8.342;2023-03-01T08:53:43;19.33;;;17.03;;
2850;SDS011;1433;49.976;8.342;2023-03-01T08:56:11;21.40;;;15.87;;
2850;SDS011;1433;49.976;8.342;2023-03-01T08:58:37;19.50;;;17.13;;
2850;SDS011;1433;49.976;8.342;2023-03-01T09:01:09;21.23;;;16.87;;
2850;SDS011;1433;49.976;8.342;2023-03-01T09:03:38;19.63;;;16.70;;
2850;SDS011;1433;49.976;8.342;2023-03-01T09:06:05;22.97;;;16.63;;
2850;SDS011;1433;49.976;8.342;2023-03-01T09:08:36;21.70;;;16.90;;
2850;SDS011;1433;49.976;8.342;2023-03-01T09:11:05;23.10;;;16.63;;
2850;SDS011;1433;49.976;8.342;2023-03-01T09:13:33;18.63;;;16.67;;
2850;SDS011;1433;49.976;8.342;2023-03-01T09:16:01;19.20;;;15.23;;
2850;SDS011;1433;49.976;8.342;2023-03-01T09:18:30;17.87;;;16.07;;
2850;SDS011;1433;49.976;8.342;2023-03-01T09:21:04;18.40;;;16.23;;
2850;SDS011;1433;49.976;8.342;2023-03-01T09:23:35;17.53;;;15.83;;
2850;SDS011;1433;49.976;8.342;2023-03-01T09:26:09;21.00;;;17.07;;
2850;SDS011;1433;49.976;8.342;2023-03-01T09:28:35;18.40;;;16.40;;
2850;SDS011;1433;49.976;8.342;2023-03-01T09:31:03;19.03;;;17.00;;
2850;SDS011;1433;49.976;8.342;2023-03-01T09:33:30;22.33;;;19.93;;
2850;SDS011;1433;49.976;8.342;2023-03-01T09:35:59;18.63;;;16.57;;
2850;SDS011;1433;49.976;8.342;2023-03-01T09:38:29;20.20;;;16.90;;
2850;SDS011;1433;49.976;8.342;2023-03-01T09:40:56;21.77;;;17.97;;
2850;SDS011;1433;49.976;8.342;2023-03-01T09:43:25;18.40;;;16.40;;
2850;SDS011;1433;49.976;8.342;2023-03-01T09:46:20;20.80;;;17.43;;
2850;SDS011;1433;49.976;8.342;2023-03-01T09:48:56;19.00;;;16.80;;
2850;SDS011;1433;49.976;8.342;2023-03-01T09:51:29;20.37;;;17.40;;
2850;SDS011;1433;49.976;8.342;2023-03-01T09:54:03;18.23;;;16.30;;
2850;SDS011;1433;49.976;8.342;2023-03-01T09:59:14;24.30;;;18.63;;
2850;SDS011;1433;49.976;8.342;2023-03-01T10:04:32;21.10;;;19.00;;
2850;SDS011;1433;49.976;8.342;2023-03-01T10:09:54;21.33;;;18.93;;
2850;SDS011;1433;49.976;8.342;2023-03-01T10:12:22;23.03;;;19.00;;
2850;SDS011;1433;49.976;8.342;2023-03-01T10:17:47;19.30;;;17.40;;
2850;SDS011;1433;49.976;8.342;2023-03-01T10:23:31;20.33;;;18.23;;
2850;SDS011;1433;49.976;8.342;2023-03-01T10:31:27;19.63;;;17.63;;
2850;SDS011;1433;49.976;8.342;2023-03-01T10:34:07;21.13;;;18.63;;
2850;SDS011;1433;49.976;8.342;2023-03-01T10:36:36;20.07;;;16.37;;
2850;SDS011;1433;49.976;8.342;2023-03-01T10:39:11;21.00;;;18.10;;
2850;SDS011;1433;49.976;8.342;2023-03-01T10:41:51;20.90;;;18.70;;
2850;SDS011;1433;49.976;8.342;2023-03-01T10:47:14;22.37;;;19.37;;
2850;SDS011;1433;49.976;8.342;2023-03-01T10:49:53;19.87;;;17.77;;
2850;SDS011;1433;49.976;8.342;2023-03-01T10:52:33;18.87;;;17.17;;
2850;SDS011;1433;49.976;8.342;2023-03-01T10:55:04;22.07;;;19.73;;
2850;SDS011;1433;49.976;8.342;2023-03-01T10:58:16;23.83;;;17.70;;
2850;SDS011;1433;49.976;8.342;2023-03-01T11:00:46;20.00;;;17.83;;
2850;SDS011;1433;49.976;8.342;2023-03-01T11:03:27;19.63;;;17.63;;
2850;SDS011;1433;49.976;8.342;2023-03-01T11:05:56;17.47;;;15.80;;
2850;SDS011;1433;49.976;8.342;2023-03-01T11:08:48;19.47;;;16.83;;
2850;SDS011;1433;49.976;8.342;2023-03-01T11:11:17;19.90;;;18.03;;
2850;SDS011;1433;49.976;8.342;2023-03-01T11:17:00;17.40;;;15.53;;
2850;SDS011;1433;49.976;8.342;2023-03-01T11:19:29;19.20;;;17.33;;
2850;SDS011;1433;49.976;8.342;2023-03-01T11:21:58;17.53;;;15.83;;
2850;SDS011;1433;49.976;8.342;2023-03-01T11:24:40;20.60;;;16.93;;
2850;SDS011;1433;49.976;8.342;2023-03-01T11:30:04;18.90;;;17.00;;
2850;SDS011;1433;49.976;8.342;2023-03-01T11:32:41;19.60;;;17.47;;
2850;SDS011;1433;49.976;8.342;2023-03-01T11:35:18;19.67;;;17.53;;
2850;SDS011;1433;49.976;8.342;2023-03-01T11:43:59;19.23;;;17.40;;
2850;SDS011;1433;49.976;8.342;2023-03-01T11:58:32;15.67;;;14.27;;
2850;SDS011;1433;49.976;8.342;2023-03-01T12:01:17;17.97;;;16.10;;
2850;SDS011;1433;49.976;8.342;2023-03-01T12:04:02;17.00;;;15.40;;
2850;SDS011;1433;49.976;8.342;2023-03-01T12:12:35;17.57;;;15.70;;
2850;SDS011;1433;49.976;8.342;2023-03-01T12:16:20;14.33;;;13.10;;
2850;SDS011;1433;49.976;8.342;2023-03-01T12:19:01;16.03;;;14.53;;
2850;SDS011;1433;49.976;8.342;2023-03-01T12:34:04;15.93;;;14.30;;
2850;SDS011;1433;49.976;8.342;2023-03-01T12:39:26;14.93;;;13.53;;
2850;SDS011;1433;49.976;8.342;2023-03-01T12:50:18;14.17;;;13.00;;
2850;SDS011;1433;49.976;8.342;2023-03-01T12:52:57;13.97;;;12.70;;
2850;SDS011;1433;49.976;8.342;2023-03-01T12:55:34;14.10;;;12.77;;
2850;SDS011;1433;49.976;8.342;2023-03-01T13:07:05;13.37;;;12.20;;
2850;SDS011;1433;49.976;8.342;2023-03-01T13:12:52;15.90;;;14.40;;
2850;SDS011;1433;49.976;8.342;2023-03-01T13:15:32;11.90;;;10.80;;
2850;SDS011;1433;49.976;8.342;2023-03-01T13:18:04;14.33;;;13.13;;
2850;SDS011;1433;49.976;8.342;2023-03-01T13:20:56;14.50;;;12.73;;
2850;SDS011;1433;49.976;8.342;2023-03-01T13:23:27;15.07;;;13.47;;
2850;SDS011;1433;49.976;8.342;2023-03-01T13:28:51;13.40;;;12.20;;
2850;SDS011;1433;49.976;8.342;2023-03-01T13:33:54;11.70;;;10.77;;
2850;SDS011;1433;49.976;8.342;2023-03-01T13:39:03;12.00;;;10.80;;
2850;SDS011;1433;49.976;8.342;2023-03-01T13:49:27;15.10;;;10.90;;
2850;SDS011;1433;49.976;8.342;2023-03-01T13:51:57;12.07;;;10.97;;
2850;SDS011;1433;49.976;8.342;2023-03-01T13:54:28;11.97;;;10.77;;
2850;SDS011;1433;49.976;8.342;2023-03-01T13:56:59;14.10;;;10.10;;
2850;SDS011;1433;49.976;8.342;2023-03-01T13:59:27;13.10;;;11.87;;
2850;SDS011;1433;49.976;8.342;2023-03-01T14:01:56;11.47;;;10.27;;
2850;SDS011;1433;49.976;8.342;2023-03-01T14:04:26;12.20;;;11.00;;
2850;SDS011;1433;49.976;8.342;2023-03-01T14:09:44;12.00;;;10.77;;
2850;SDS011;1433;49.976;8.342;2023-03-01T14:18:04;11.60;;;10.50;;
2850;SDS011;1433;49.976;8.342;2023-03-01T14:20:58;11.27;;;10.27;;
2850;SDS011;1433;49.976;8.342;2023-03-01T14:23:25;10.90;;;9.93;;
2850;SDS011;1433;49.976;8.342;2023-03-01T14:25:56;10.80;;;9.90;;
2850;SDS011;1433;49.976;8.342;2023-03-01T14:28:27;11.40;;;10.40;;
2850;SDS011;1433;49.976;8.342;2023-03-01T14:31:00;12.77;;;11.43;;
2850;SDS011;1433;49.976;8.342;2023-03-01T14:33:29;11.40;;;10.20;;
2850;SDS011;1433;49.976;8.342;2023-03-01T14:36:00;10.80;;;9.90;;
2850;SDS011;1433;49.976;8.342;2023-03-01T14:38:39;9.73;;;8.93;;
2850;SDS011;1433;49.976;8.342;2023-03-01T14:43:50;11.93;;;10.93;;
2850;SDS011;1433;49.976;8.342;2023-03-01T14:46:51;13.53;;;12.20;;
2850;SDS011;1433;49.976;8.342;2023-03-01T14:49:22;13.13;;;11.73;;
2850;SDS011;1433;49.976;8.342;2023-03-01T14:51:59;12.13;;;10.33;;
2850;SDS011;1433;49.976;8.342;2023-03-01T14:57:14;11.70;;;10.63;;
2850;SDS011;1433;49.976;8.342;2023-03-01T14:59:54;12.33;;;11.23;;
2850;SDS011;1433;49.976;8.342;2023-03-01T15:02:27;10.87;;;9.93;;
2850;SDS011;1433;49.976;8.342;2023-03-01T15:04:57;12.73;;;11.07;;
2850;SDS011;1433;49.976;8.342;2023-03-01T15:07:33;11.53;;;10.33;;
2850;SDS011;1433;49.976;8.342;2023-03-01T15:09:58;12.30;;;10.97;;
2850;SDS011;1433;49.976;8.342;2023-03-01T15:15:52;12.70;;;11.40;;
2850;SDS011;1433;49.976;8.342;2023-03-01T15:18:14;11.40;;;10.50;;
2850;SDS011;1433;49.976;8.342;2023-03-01T15:20:47;11.73;;;10.63;;
2850;SDS011;1433;49.976;8.342;2023-03-01T15:23:23;12.27;;;11.00;;
2850;SDS011;1433;49.976;8.342;2023-03-01T15:25:50;11.87;;;10.77;;
2850;SDS011;1433;49.976;8.342;2023-03-01T15:28:25;12.10;;;10.90;;
2850;SDS011;1433;49.976;8.342;2023-03-01T15:33:51;10.27;;;9.27;;
2850;SDS011;1433;49.976;8.342;2023-03-01T15:39:31;11.50;;;10.47;;
2850;SDS011;1433;49.976;8.342;2023-03-01T15:45:09;11.37;;;10.27;;
2850;SDS011;1433;49.976;8.342;2023-03-01T15:47:56;11.23;;;10.23;;
2850;SDS011;1433;49.976;8.342;2023-03-01T15:50:25;13.10;;;10.53;;
2850;SDS011;1433;49.976;8.342;2023-03-01T15:52:54;11.83;;;10.70;;
2850;SDS011;1433;49.976;8.342;2023-03-01T15:55:27;12.60;;;11.40;;
2850;SDS011;1433;49.976;8.342;2023-03-01T15:58:00;12.90;;;11.50;;
2850;SDS011;1433;49.976;8.342;2023-03-01T16:00:30;11.50;;;10.50;;
2850;SDS011;1433;49.976;8.342;2023-03-01T16:02:56;12.47;;;11.40;;
2850;SDS011;1433;49.976;8.342;2023-03-01T16:05:24;12.17;;;11.00;;
2850;SDS011;1433;49.976;8.342;2023-03-01T16:07:54;11.47;;;9.83;;
2850;SDS011;1433;49.976;8.342;2023-03-01T16:10:20;11.37;;;10.33;;
2850;SDS011;1433;49.976;8.342;2023-03-01T16:12:53;11.13;;;10.13;;
2850;SDS011;1433;49.976;8.342;2023-03-01T16:15:19;11.80;;;10.70;;
2850;SDS011;1433;49.976;8.342;2023-03-01T16:17:52;12.50;;;10.60;;
2850;SDS011;1433;49.976;8.342;2023-03-01T16:20:20;13.10;;;10.13;;
2850;SDS011;1433;49.976;8.342;2023-03-01T16:22:47;12.50;;;11.30;;
2850;SDS011;1433;49.976;8.342;2023-03-01T16:25:17;12.00;;;10.80;;
2850;SDS011;1433;49.976;8.342;2023-03-01T16:27:47;12.53;;;11.33;;
2850;SDS011;1433;49.976;8.342;2023-03-01T16:30:16;13.07;;;11.67;;
2850;SDS011;1433;49.976;8.342;2023-03-01T16:32:46;11.60;;;10.50;;
2850;SDS011;1433;49.976;8.342;2023-03-01T16:35:14;13.17;;;11.97;;
2850;SDS011;1433;49.976;8.342;2023-03-01T16:37:44;13.37;;;11.30;;
2850;SDS011;1433;49.976;8.342;2023-03-01T16:40:22;11.93;;;10.90;;
2850;SDS011;1433;49.976;8.342;2023-03-01T16:42:50;10.90;;;9.80;;
2850;SDS011;1433;49.976;8.342;2023-03-01T16:45:17;12.53;;;11.10;;
2850;SDS011;1433;49.976;8.342;2023-03-01T16:47:44;12.20;;;11.10;;
2850;SDS011;1433;49.976;8.342;2023-03-01T16:50:11;12.27;;;11.03;;
2850;SDS011;1433;49.976;8.342;2023-03-01T16:52:37;12.23;;;11.00;;
2850;SDS011;1433;49.976;8.342;2023-03-01T16:55:04;12.00;;;10.80;;
2850;SDS011;1433;49.976;8.342;2023-03-01T16:57:36;11.47;;;10.47;;
2850;SDS011;1433;49.976;8.342;2023-03-01T17:00:05;11.33;;;10.23;;
2850;SDS011;1433;49.976;8.342;2023-03-01T17:02:36;11.73;;;10.37;;
2850;SDS011;1433;49.976;8.342;2023-03-01T17:05:03;13.00;;;11.60;;
2850;SDS011;1433;49.976;8.342;2023-03-01T17:07:31;12.50;;;10.87;;
2850;SDS011;1433;49.976;8.342;2023-03-01T17:10:02;12.60;;;11.50;;
2850;SDS011;1433;49.976;8.342;2023-03-01T17:12:34;12.23;;;11.00;;
2850;SDS011;1433;49.976;8.342;2023-03-01T17:15:00;13.93;;;12.50;;
2850;SDS011;1433;49.976;8.342;2023-03-01T17:17:27;12.47;;;11.27;;
2850;SDS011;1433;49.976;8.342;2023-03-01T17:19:55;15.60;;;11.67;;
2850;SDS011;1433;49.976;8.342;2023-03-01T17:22:22;16.60;;;12.07;;
2850;SDS011;1433;49.976;8.342;2023-03-01T17:24:48;11.20;;;10.03;;
2850;SDS011;1433;49.976;8.342;2023-03-01T17:27:14;12.03;;;10.77;;